Time;durP1;ratioP1;P1;durP2;ratioP2;P2;SDS_P1;SDS_P2;PMS_P1;PMS_P2;Temp;Humidity;BMP_temperature;BMP_pressure;BME280_temperature;BME280_humidity;BME280_pressure;Samples;Min_cycle;Max_cycle;Signal;HPM_P1;HPM_P2
2021/11/11 00:02:25;;;;;;;36.35;21.65;;;;;;;;;;5008742;28;20629;-65
2021/11/11 00:04:51;;;;;;;40.88;22.65;;;;;;;;;;5008867;28;20064;-65
2021/11/11 00:07:17;;;;;;;37.78;21.95;;;;;;;;;;5009612;28;20022;-65
2021/11/11 00:09:43;;;;;;;48.35;23.13;;;;;;;;;;5009325;28;20037;-66
2021/11/11 00:12:10;;;;;;;37.70;21.48;;;;;;;;;;4662729;28;9999644;-65
2021/11/11 00:14:36;;;;;;;37.15;19.83;;;;;;;;;;5009416;28;20029;-66
2021/11/11 00:17:02;;;;;;;42.53;20.95;;;;;;;;;;5011896;28;20626;-66
2021/11/11 00:19:28;;;;;;;42.35;21.67;;;;;;;;;;5011796;28;20018;-65
2021/11/11 00:21:54;;;;;;;37.58;20.48;;;;;;;;;;5010411;28;20029;-65
2021/11/11 00:24:20;;;;;;;39.28;19.95;;;;;;;;;;5010104;28;20454;-65
2021/11/11 00:26:47;;;;;;;40.60;20.63;;;;;;;;;;5010530;28;20088;-65
2021/11/11 00:29:13;;;;;;;43.90;21.00;;;;;;;;;;5010474;28;20018;-65
2021/11/11 00:31:39;;;;;;;38.92;20.88;;;;;;;;;;5010061;28;20060;-65
2021/11/11 00:34:05;;;;;;;41.40;22.00;;;;;;;;;;5011245;28;20068;-65
2021/11/11 00:36:31;;;;;;;42.97;21.45;;;;;;;;;;5011743;28;20466;-64
2021/11/11 00:38:58;;;;;;;39.72;21.92;;;;;;;;;;5011358;28;20017;-64
2021/11/11 00:41:24;;;;;;;43.30;21.35;;;;;;;;;;5010021;28;20029;-65
2021/11/11 00:43:50;;;;;;;44.38;22.33;;;;;;;;;;5009771;28;20072;-65
2021/11/11 00:46:16;;;;;;;38.92;20.27;;;;;;;;;;5009859;28;20030;-66
2021/11/11 00:48:42;;;;;;;41.58;22.80;;;;;;;;;;5011280;28;20083;-65
2021/11/11 00:51:08;;;;;;;36.92;19.45;;;;;;;;;;5011253;28;20030;-65
2021/11/11 00:53:34;;;;;;;40.35;19.80;;;;;;;;;;5011075;28;20116;-65
2021/11/11 00:56:00;;;;;;;38.55;22.02;;;;;;;;;;5009906;28;20072;-66
2021/11/11 00:58:27;;;;;;;41.63;20.65;;;;;;;;;;5011474;28;20370;-65
2021/11/11 01:00:53;;;;;;;41.35;20.58;;;;;;;;;;5010046;28;20071;-65
2021/11/11 01:03:21;;;;;;;40.70;21.20;;;;;;;;;;5010941;28;20022;-65
2021/11/11 01:05:49;;;;;;;42.22;21.77;;;;;;;;;;5010971;28;20490;-65
2021/11/11 01:08:15;;;;;;;39.60;21.88;;;;;;;;;;5009532;28;20065;-65
2021/11/11 01:10:41;;;;;;;38.47;20.58;;;;;;;;;;5010736;28;20057;-65
2021/11/11 01:13:07;;;;;;;43.92;20.10;;;;;;;;;;5010316;28;20501;-65
2021/11/11 01:15:33;;;;;;;37.90;20.17;;;;;;;;;;5009801;28;20053;-66
2021/11/11 01:18:01;;;;;;;41.53;19.52;;;;;;;;;;5009734;28;20469;-66
2021/11/11 01:20:28;;;;;;;39.83;19.85;;;;;;;;;;5011141;28;20074;-66
2021/11/11 01:22:54;;;;;;;36.33;19.65;;;;;;;;;;5010411;28;20121;-66
2021/11/11 01:25:22;;;;;;;40.38;21.13;;;;;;;;;;5010713;28;20490;-65
2021/11/11 01:27:48;;;;;;;38.45;19.73;;;;;;;;;;5009735;28;20500;-65
2021/11/11 01:30:14;;;;;;;37.15;19.80;;;;;;;;;;5010934;28;20100;-65
2021/11/11 01:32:40;;;;;;;38.95;19.20;;;;;;;;;;5010879;28;20120;-65
2021/11/11 01:35:08;;;;;;;35.33;20.17;;;;;;;;;;5010737;28;20111;-65
2021/11/11 01:37:34;;;;;;;44.55;23.17;;;;;;;;;;5010962;28;20025;-66
2021/11/11 01:40:00;;;;;;;41.92;21.60;;;;;;;;;;5010832;28;20045;-65
2021/11/11 01:42:26;;;;;;;40.67;22.10;;;;;;;;;;5009383;28;20022;-66
2021/11/11 01:44:54;;;;;;;37.65;19.42;;;;;;;;;;5008971;28;20117;-65
2021/11/11 01:47:21;;;;;;;37.63;21.38;;;;;;;;;;5009490;28;20052;-65
2021/11/11 01:49:47;;;;;;;40.08;24.00;;;;;;;;;;5010811;28;20022;-65
2021/11/11 01:52:17;;;;;;;39.67;21.88;;;;;;;;;;5010705;28;20022;-65
2021/11/11 01:54:44;;;;;;;44.67;21.83;;;;;;;;;;5009170;28;20486;-65
2021/11/11 01:57:09;;;;;;;39.92;22.08;;;;;;;;;;5009824;28;20033;-65
2021/11/11 01:59:36;;;;;;;42.03;22.73;;;;;;;;;;5014369;28;20026;-65
2021/11/11 02:02:02;;;;;;;41.35;22.20;;;;;;;;;;5014382;28;20104;-65
2021/11/11 02:04:28;;;;;;;47.20;22.67;;;;;;;;;;5012531;28;20049;-65
2021/11/11 02:06:54;;;;;;;44.13;23.35;;;;;;;;;;5012910;28;20057;-66
2021/11/11 02:09:20;;;;;;;44.28;20.85;;;;;;;;;;5012972;28;20483;-65
2021/11/11 02:11:49;;;;;;;46.67;22.85;;;;;;;;;;5013380;28;20108;-65
2021/11/11 02:14:15;;;;;;;44.40;22.05;;;;;;;;;;5013957;28;20017;-65
2021/11/11 02:16:41;;;;;;;42.95;21.48;;;;;;;;;;5013853;28;20017;-65
2021/11/11 02:19:08;;;;;;;38.80;20.58;;;;;;;;;;5014002;28;20028;-65
2021/11/11 02:21:37;;;;;;;43.83;22.90;;;;;;;;;;5012682;28;20026;-65
2021/11/11 02:24:03;;;;;;;40.10;22.73;;;;;;;;;;5024115;22;20131;-65
2021/11/11 02:26:29;;;;;;;48.10;23.55;;;;;;;;;;5015518;28;20029;-65
2021/11/11 02:28:55;;;;;;;37.40;20.10;;;;;;;;;;5016182;28;20033;-65
2021/11/11 02:31:21;;;;;;;44.53;22.10;;;;;;;;;;4998612;28;20022;-65
2021/11/11 02:33:54;;;;;;;35.25;21.67;;;;;;;;;;4997457;28;20363;-65
2021/11/11 02:36:20;;;;;;;41.00;22.70;;;;;;;;;;4998929;28;20030;-65
2021/11/11 02:38:49;;;;;;;37.70;19.25;;;;;;;;;;4998791;28;20030;-65
2021/11/11 02:41:16;;;;;;;41.17;21.90;;;;;;;;;;4998398;28;20053;-65
2021/11/11 02:43:42;;;;;;;42.47;21.88;;;;;;;;;;5015388;28;20429;-65
2021/11/11 02:46:08;;;;;;;41.53;21.27;;;;;;;;;;4998027;28;20022;-65
2021/11/11 02:48:34;;;;;;;40.42;20.75;;;;;;;;;;5016271;28;20052;-64
2021/11/11 02:51:00;;;;;;;41.55;21.35;;;;;;;;;;4998012;28;20412;-65
2021/11/11 02:53:26;;;;;;;41.47;22.73;;;;;;;;;;4997685;28;20026;-65
2021/11/11 02:55:52;;;;;;;37.17;19.25;;;;;;;;;;5015991;28;20024;-65
2021/11/11 02:58:19;;;;;;;39.47;19.75;;;;;;;;;;4997791;28;20381;-64
2021/11/11 03:00:48;;;;;;;39.38;20.35;;;;;;;;;;5015088;28;20022;-65
2021/11/11 03:03:14;;;;;;;39.25;19.23;;;;;;;;;;4997544;28;20029;-64
2021/11/11 03:05:40;;;;;;;35.13;19.83;;;;;;;;;;5015315;28;20026;-65
2021/11/11 03:08:07;;;;;;;33.97;18.30;;;;;;;;;;5014646;28;20101;-64
2021/11/11 03:10:33;;;;;;;40.40;19.38;;;;;;;;;;5015015;28;20104;-64
2021/11/11 03:13:00;;;;;;;36.35;20.58;;;;;;;;;;4996748;28;20018;-65
2021/11/11 03:15:27;;;;;;;38.38;19.10;;;;;;;;;;5014762;28;20053;-64
2021/11/11 03:17:53;;;;;;;43.20;19.17;;;;;;;;;;5014452;28;20018;-65
2021/11/11 03:20:19;;;;;;;37.80;20.13;;;;;;;;;;5014597;28;20140;-65
2021/11/11 03:22:46;;;;;;;39.33;19.10;;;;;;;;;;4997139;28;20373;-65
2021/11/11 03:25:13;;;;;;;39.53;20.02;;;;;;;;;;5013863;28;20035;-65
2021/11/11 03:27:40;;;;;;;37.67;20.38;;;;;;;;;;4996288;28;20045;-65
2021/11/11 03:30:08;;;;;;;41.20;18.58;;;;;;;;;;5014160;28;20029;-65
2021/11/11 03:32:34;;;;;;;35.78;19.38;;;;;;;;;;4996622;28;20413;-64
2021/11/11 03:35:00;;;;;;;34.60;18.58;;;;;;;;;;5013633;28;20052;-65
2021/11/11 03:37:26;;;;;;;37.03;18.45;;;;;;;;;;4996279;28;20120;-65
2021/11/11 03:39:52;;;;;;;34.50;17.65;;;;;;;;;;5013686;28;20018;-65
2021/11/11 03:42:18;;;;;;;36.38;19.27;;;;;;;;;;4996466;28;20026;-64
2021/11/11 03:44:45;;;;;;;37.72;18.77;;;;;;;;;;4995672;28;20030;-65
2021/11/11 03:47:12;;;;;;;37.30;20.48;;;;;;;;;;4996216;28;20029;-65
2021/11/11 03:49:38;;;;;;;34.50;19.35;;;;;;;;;;5013832;28;20462;-65
2021/11/11 03:52:06;;;;;;;37.13;19.08;;;;;;;;;;4996108;28;20113;-65
2021/11/11 03:54:32;;;;;;;39.00;20.80;;;;;;;;;;4996041;28;20030;-64
2021/11/11 03:56:59;;;;;;;38.35;18.98;;;;;;;;;;5014084;28;20013;-65
2021/11/11 03:59:25;;;;;;;37.95;19.65;;;;;;;;;;4997139;28;20459;-65
2021/11/11 04:01:52;;;;;;;37.25;19.13;;;;;;;;;;5014468;28;20084;-63
2021/11/11 04:04:18;;;;;;;35.83;19.58;;;;;;;;;;5014310;28;20018;-64
2021/11/11 04:06:44;;;;;;;33.45;17.88;;;;;;;;;;4996701;28;20025;-64
2021/11/11 04:09:10;;;;;;;37.50;19.50;;;;;;;;;;4996689;28;20029;-65
2021/11/11 04:11:36;;;;;;;38.22;19.08;;;;;;;;;;4996909;28;20025;-65
2021/11/11 04:14:03;;;;;;;33.78;17.52;;;;;;;;;;4996657;28;20378;-65
2021/11/11 04:16:29;;;;;;;35.45;18.90;;;;;;;;;;5014339;28;20028;-65
2021/11/11 04:18:55;;;;;;;38.83;20.90;;;;;;;;;;4996527;28;20014;-64
2021/11/11 04:21:22;;;;;;;32.60;17.45;;;;;;;;;;4992949;28;20026;-65
2021/11/11 04:23:49;;;;;;;35.60;18.27;;;;;;;;;;4994236;28;20026;-65
2021/11/11 04:26:21;;;;;;;36.15;17.85;;;;;;;;;;4994673;28;20467;-64
2021/11/11 04:31:40;;;;;;;42.90;20.40;;;;;;;;;;4994474;28;20038;-65
2021/11/11 04:34:08;;;;;;;35.47;19.35;;;;;;;;;;4993844;28;20594;-65
2021/11/11 04:47:08;;;;;;;38.20;18.55;;;;;;;;;;5013848;28;20394;-65
2021/11/11 04:52:20;;;;;;;33.72;17.23;;;;;;;;;;5013606;28;20021;-65
2021/11/11 05:05:23;;;;;;;36.45;18.27;;;;;;;;;;4993768;28;20030;-64
2021/11/11 05:07:50;;;;;;;35.97;18.08;;;;;;;;;;4993083;28;20438;-65
2021/11/11 05:10:17;;;;;;;36.42;19.58;;;;;;;;;;4992657;28;20026;-64
2021/11/11 05:12:43;;;;;;;36.50;19.60;;;;;;;;;;5009046;28;20021;-64
2021/11/11 05:15:09;;;;;;;34.38;18.05;;;;;;;;;;5012903;28;20030;-66
2021/11/11 05:17:36;;;;;;;36.60;18.45;;;;;;;;;;5013717;28;20032;-65
2021/11/11 05:20:02;;;;;;;33.10;17.70;;;;;;;;;;4996091;28;20442;-65
2021/11/11 05:22:28;;;;;;;35.08;18.45;;;;;;;;;;5012403;28;20108;-65
2021/11/11 05:24:54;;;;;;;32.83;17.23;;;;;;;;;;5012798;28;20109;-64
2021/11/11 05:27:23;;;;;;;34.38;18.50;;;;;;;;;;5013253;28;20048;-64
2021/11/11 05:29:49;;;;;;;36.83;18.23;;;;;;;;;;4995787;28;20021;-64
2021/11/11 05:32:15;;;;;;;32.78;18.63;;;;;;;;;;4996100;28;20026;-65
2021/11/11 05:34:41;;;;;;;37.85;21.75;;;;;;;;;;5017169;28;20102;-64
2021/11/11 05:37:07;;;;;;;35.08;19.60;;;;;;;;;;4999907;28;20440;-65
2021/11/11 05:39:34;;;;;;;36.47;19.48;;;;;;;;;;4999072;28;20390;-65
2021/11/11 05:42:01;;;;;;;38.42;19.75;;;;;;;;;;4999294;28;20485;-65
2021/11/11 05:44:27;;;;;;;39.53;19.35;;;;;;;;;;4998202;28;20032;-64
2021/11/11 05:46:53;;;;;;;37.95;19.90;;;;;;;;;;4998260;28;20587;-64
2021/11/11 05:49:20;;;;;;;35.30;19.48;;;;;;;;;;4998405;28;20096;-64
2021/11/11 05:51:46;;;;;;;37.00;20.27;;;;;;;;;;5015873;28;20099;-64
2021/11/11 05:54:12;;;;;;;39.20;19.27;;;;;;;;;;4997854;28;20018;-66
2021/11/11 05:56:38;;;;;;;41.95;20.13;;;;;;;;;;4997672;28;20116;-64
2021/11/11 05:59:04;;;;;;;35.95;19.20;;;;;;;;;;4997840;28;20041;-65
2021/11/11 06:01:31;;;;;;;37.60;19.70;;;;;;;;;;5015652;28;20025;-64
2021/11/11 06:03:57;;;;;;;37.53;19.65;;;;;;;;;;5015160;28;20030;-65
2021/11/11 06:06:23;;;;;;;37.60;20.67;;;;;;;;;;5015457;28;20018;-65
2021/11/11 06:08:50;;;;;;;37.17;19.05;;;;;;;;;;4997788;28;20022;-64
2021/11/11 06:11:16;;;;;;;38.63;18.63;;;;;;;;;;4997305;28;20018;-65
2021/11/11 06:13:42;;;;;;;37.90;19.92;;;;;;;;;;5010281;28;20021;-65
2021/11/11 06:16:08;;;;;;;34.85;18.77;;;;;;;;;;5012030;28;20393;-65
2021/11/11 06:18:34;;;;;;;38.33;17.77;;;;;;;;;;5000665;28;20029;-65
2021/11/11 06:21:00;;;;;;;37.53;19.38;;;;;;;;;;4995953;28;20443;-66
2021/11/11 06:23:27;;;;;;;39.72;19.58;;;;;;;;;;4977339;28;20035;-66
2021/11/11 06:25:53;;;;;;;39.15;19.55;;;;;;;;;;4994979;28;20359;-65
2021/11/11 06:28:19;;;;;;;39.63;19.42;;;;;;;;;;4977505;28;20019;-64
2021/11/11 06:30:45;;;;;;;39.22;18.95;;;;;;;;;;4987995;28;20381;-66
2021/11/11 06:33:12;;;;;;;35.03;19.27;;;;;;;;;;5014372;28;20026;-65
2021/11/11 06:35:38;;;;;;;188.10;101.35;;;;;;;;;;4996823;28;20025;-65
2021/11/11 06:38:04;;;;;;;48.78;29.00;;;;;;;;;;5014483;28;20025;-65
2021/11/11 06:40:31;;;;;;;126.38;68.80;;;;;;;;;;4996651;28;20022;-65
2021/11/11 06:42:58;;;;;;;48.88;27.10;;;;;;;;;;4996334;28;20032;-65
2021/11/11 06:45:25;;;;;;;41.55;20.55;;;;;;;;;;4996771;28;20025;-65
2021/11/11 06:47:51;;;;;;;36.03;18.60;;;;;;;;;;5003923;28;20022;-64
2021/11/11 06:50:18;;;;;;;36.65;17.58;;;;;;;;;;4994160;28;20445;-65
2021/11/11 06:52:44;;;;;;;38.90;19.27;;;;;;;;;;4996410;28;20018;-65
2021/11/11 06:55:11;;;;;;;35.28;17.30;;;;;;;;;;5013545;28;20101;-64
2021/11/11 06:57:37;;;;;;;37.60;19.42;;;;;;;;;;4996571;28;20116;-65
2021/11/11 07:00:05;;;;;;;39.50;19.70;;;;;;;;;;5014050;28;20458;-65
2021/11/11 07:02:31;;;;;;;36.75;20.13;;;;;;;;;;4996073;28;20056;-65
2021/11/11 07:04:57;;;;;;;33.97;18.33;;;;;;;;;;4996157;28;20097;-65
2021/11/11 07:07:23;;;;;;;38.17;20.42;;;;;;;;;;4991885;28;20030;-65
2021/11/11 07:09:49;;;;;;;33.97;18.10;;;;;;;;;;4981824;28;20014;-66
2021/11/11 07:12:15;;;;;;;38.55;19.92;;;;;;;;;;4996351;28;20057;-66
2021/11/11 07:14:42;;;;;;;36.38;18.60;;;;;;;;;;5012923;28;20029;-65
2021/11/11 07:17:09;;;;;;;38.63;20.15;;;;;;;;;;4995459;28;20018;-66
2021/11/11 07:19:35;;;;;;;42.30;19.60;;;;;;;;;;4995723;28;20072;-65
2021/11/11 07:22:01;;;;;;;37.83;19.65;;;;;;;;;;5013136;28;20090;-65
2021/11/11 07:24:27;;;;;;;34.63;18.00;;;;;;;;;;5012307;28;20030;-65
2021/11/11 07:26:54;;;;;;;43.47;19.52;;;;;;;;;;5013164;28;20021;-65
2021/11/11 07:29:21;;;;;;;36.83;20.25;;;;;;;;;;5013168;28;20030;-65
2021/11/11 07:31:51;;;;;;;37.50;20.77;;;;;;;;;;5013232;28;20417;-65
2021/11/11 07:34:17;;;;;;;34.58;19.20;;;;;;;;;;5012129;28;20030;-65
2021/11/11 07:36:44;;;;;;;34.70;18.75;;;;;;;;;;5012611;28;20018;-65
2021/11/11 07:39:10;;;;;;;40.05;19.92;;;;;;;;;;4995598;28;20509;-65
2021/11/11 07:41:37;;;;;;;36.85;19.40;;;;;;;;;;4995081;28;20073;-65
2021/11/11 07:44:03;;;;;;;41.45;19.48;;;;;;;;;;4995059;28;20022;-66
2021/11/11 07:46:32;;;;;;;40.63;19.52;;;;;;;;;;4995234;28;20028;-66
2021/11/11 07:48:58;;;;;;;37.42;19.33;;;;;;;;;;5010668;28;20025;-66
2021/11/11 07:51:24;;;;;;;38.20;18.95;;;;;;;;;;4994743;28;20084;-64
2021/11/11 07:53:50;;;;;;;33.90;18.08;;;;;;;;;;4994901;28;20022;-65
2021/11/11 07:56:16;;;;;;;30.90;17.60;;;;;;;;;;5012158;28;20045;-65
2021/11/11 07:58:42;;;;;;;37.33;19.13;;;;;;;;;;5012947;28;20069;-65
2021/11/11 08:01:08;;;;;;;36.63;20.80;;;;;;;;;;5012779;28;20026;-65
2021/11/11 08:03:34;;;;;;;38.83;18.98;;;;;;;;;;5012306;28;20054;-65
2021/11/11 08:06:00;;;;;;;37.85;17.20;;;;;;;;;;5012234;28;20056;-65
2021/11/11 08:08:26;;;;;;;36.08;18.75;;;;;;;;;;5012729;28;20025;-65
2021/11/11 08:10:52;;;;;;;34.80;18.45;;;;;;;;;;4995295;28;20064;-63
2021/11/11 08:13:18;;;;;;;36.60;18.65;;;;;;;;;;5012449;28;20017;-65
2021/11/11 08:15:44;;;;;;;33.00;19.35;;;;;;;;;;5013615;28;20021;-69
2021/11/11 08:18:10;;;;;;;32.55;18.25;;;;;;;;;;4996113;28;20018;-70
2021/11/11 08:20:37;;;;;;;36.28;20.50;;;;;;;;;;4995973;28;20124;-70
2021/11/11 08:23:03;;;;;;;36.75;18.88;;;;;;;;;;4995664;28;20037;-69
2021/11/11 08:25:29;;;;;;;34.05;18.30;;;;;;;;;;5042514;23;20049;-67
2021/11/11 08:27:55;;;;;;;42.28;20.50;;;;;;;;;;5032546;28;20110;-68
2021/11/11 08:30:22;;;;;;;33.15;18.20;;;;;;;;;;5032598;28;20089;-67
2021/11/11 08:32:50;;;;;;;39.13;19.85;;;;;;;;;;5032869;28;20206;-68
2021/11/11 08:35:16;;;;;;;;;;;;;;;;;;5014430;28;20017;-69
2021/11/11 08:37:43;;;;;;;34.08;17.77;;;;;;;;;;5014605;28;19923;-68
2021/11/11 08:40:10;;;;;;;35.50;18.45;;;;;;;;;;5014419;28;20032;-67
2021/11/11 08:42:36;;;;;;;34.05;17.95;;;;;;;;;;5014151;28;20044;-69
2021/11/11 08:45:02;;;;;;;30.77;16.63;;;;;;;;;;5013736;28;20104;-67
2021/11/11 08:47:29;;;;;;;32.75;17.70;;;;;;;;;;5031389;28;20025;-67
2021/11/11 08:49:56;;;;;;;36.90;18.08;;;;;;;;;;5031742;28;20029;-67
2021/11/11 08:52:22;;;;;;;33.50;17.42;;;;;;;;;;5015977;28;20492;-68
2021/11/11 08:54:55;;;;;;;33.15;18.17;;;;;;;;;;5023782;28;20021;-66
2021/11/11 08:57:21;;;;;;;34.47;17.55;;;;;;;;;;5041838;28;20385;-66
2021/11/11 08:59:52;;;;;;;33.13;16.42;;;;;;;;;;5043037;28;20017;-66
2021/11/11 09:02:20;;;;;;;32.63;16.15;;;;;;;;;;5020256;28;20021;-65
2021/11/11 09:04:46;;;;;;;34.70;19.02;;;;;;;;;;5020838;28;20481;-67
2021/11/11 09:07:12;;;;;;;32.47;17.50;;;;;;;;;;5046969;28;20468;-66
2021/11/11 09:09:38;;;;;;;35.50;17.17;;;;;;;;;;5033863;28;20476;-67
2021/11/11 09:12:04;;;;;;;37.10;19.40;;;;;;;;;;5052047;28;20019;-67
2021/11/11 09:14:31;;;;;;;37.85;19.70;;;;;;;;;;5039152;28;20021;-67
2021/11/11 09:16:58;;;;;;;33.33;17.42;;;;;;;;;;5039301;28;20049;-67
2021/11/11 09:19:24;;;;;;;36.92;17.27;;;;;;;;;;5020258;28;20056;-68
2021/11/11 09:21:50;;;;;;;36.72;18.88;;;;;;;;;;5038443;28;20025;-67
2021/11/11 09:24:16;;;;;;;34.78;19.73;;;;;;;;;;5021401;28;20033;-67
2021/11/11 09:26:42;;;;;;;38.08;19.63;;;;;;;;;;5019848;28;20027;-68
2021/11/11 09:29:09;;;;;;;36.83;17.80;;;;;;;;;;5038288;28;20116;-68
2021/11/11 09:31:36;;;;;;;36.92;19.30;;;;;;;;;;5024267;28;20414;-68
2021/11/11 09:34:02;;;;;;;37.20;18.98;;;;;;;;;;5018224;28;20368;-67
2021/11/11 09:36:29;;;;;;;31.88;17.13;;;;;;;;;;5051929;28;20054;-67
2021/11/11 09:38:55;;;;;;;33.08;17.60;;;;;;;;;;5052280;28;20070;-68
2021/11/11 09:41:21;;;;;;;30.30;17.73;;;;;;;;;;5028674;28;20548;-67
2021/11/11 09:43:48;;;;;;;33.63;16.60;;;;;;;;;;5031588;28;20350;-67
2021/11/11 09:46:14;;;;;;;32.45;17.70;;;;;;;;;;5032015;28;20029;-66
2021/11/11 09:48:41;;;;;;;32.90;16.75;;;;;;;;;;5031553;28;20025;-70
2021/11/11 09:51:09;;;;;;;38.58;17.73;;;;;;;;;;5014693;28;20045;-68
2021/11/11 09:53:43;;;;;;;32.67;17.77;;;;;;;;;;5032085;28;20014;-69
2021/11/11 09:58:54;;;;;;;33.00;19.15;;;;;;;;;;5032239;28;20067;-68
2021/11/11 10:01:22;;;;;;;37.70;19.48;;;;;;;;;;5031341;28;20087;-67
2021/11/11 10:03:48;;;;;;;33.33;18.13;;;;;;;;;;5031352;28;20059;-66
2021/11/11 10:06:21;;;;;;;33.45;18.45;;;;;;;;;;5013378;28;20022;-67
2021/11/11 10:08:49;;;;;;;33.50;19.35;;;;;;;;;;5013501;28;20040;-66
2021/11/11 10:11:29;;;;;;;33.40;18.58;;;;;;;;;;5013870;28;20117;-66
2021/11/11 10:14:16;;;;;;;32.95;18.60;;;;;;;;;;5013037;28;20543;-67
2021/11/11 10:16:43;;;;;;;33.08;18.48;;;;;;;;;;5013596;28;20033;-67
2021/11/11 10:19:09;;;;;;;41.30;18.20;;;;;;;;;;5033587;28;20025;-66
2021/11/11 10:21:57;;;;;;;34.22;19.17;;;;;;;;;;5017487;28;20124;-67
2021/11/11 10:24:44;;;;;;;33.08;18.02;;;;;;;;;;5034576;28;20025;-68
2021/11/11 10:27:25;;;;;;;33.08;18.35;;;;;;;;;;5014201;28;20038;-66
2021/11/11 10:30:05;;;;;;;36.80;21.35;;;;;;;;;;4997510;28;20018;-68
2021/11/11 10:32:33;;;;;;;36.10;20.25;;;;;;;;;;4998111;28;20084;-66
2021/11/11 10:35:19;;;;;;;34.63;19.48;;;;;;;;;;5014740;28;20056;-67
2021/11/11 10:37:57;;;;;;;33.85;19.20;;;;;;;;;;5014711;28;20037;-68
2021/11/11 10:40:25;;;;;;;39.80;20.42;;;;;;;;;;5015068;28;20029;-67
2021/11/11 10:42:54;;;;;;;39.85;19.95;;;;;;;;;;5034533;28;20120;-67
2021/11/11 10:45:25;;;;;;;33.20;19.08;;;;;;;;;;5034026;28;20388;-68
2021/11/11 10:47:52;;;;;;;37.75;20.73;;;;;;;;;;5016792;28;20132;-67
2021/11/11 10:50:20;;;;;;;40.75;20.83;;;;;;;;;;5034352;28;20071;-67
2021/11/11 10:52:49;;;;;;;39.33;22.60;;;;;;;;;;5034006;28;20023;-67
2021/11/11 10:55:17;;;;;;;35.85;21.20;;;;;;;;;;5034088;28;20377;-67
2021/11/11 10:57:51;;;;;;;37.97;19.65;;;;;;;;;;5034348;28;20025;-67
2021/11/11 11:00:17;;;;;;;36.85;20.08;;;;;;;;;;5034134;28;20355;-68
2021/11/11 11:02:50;;;;;;;39.05;22.17;;;;;;;;;;5034269;28;20025;-70
2021/11/11 11:05:16;;;;;;;37.95;21.80;;;;;;;;;;5015886;28;20067;-66
2021/11/11 11:07:42;;;;;;;38.35;20.05;;;;;;;;;;5033618;28;20056;-68
2021/11/11 11:10:10;;;;;;;41.03;21.38;;;;;;;;;;5034130;28;20025;-69
2021/11/11 11:12:36;;;;;;;38.95;21.25;;;;;;;;;;5016636;28;20018;-68
2021/11/11 11:15:02;;;;;;;39.45;22.65;;;;;;;;;;5033768;28;20025;-68
2021/11/11 11:17:28;;;;;;;35.17;21.88;;;;;;;;;;5034821;28;20021;-68
2021/11/11 11:20:13;;;;;;;41.40;22.00;;;;;;;;;;5033589;28;20119;-67
2021/11/11 11:22:40;;;;;;;41.70;22.80;;;;;;;;;;5016432;28;20112;-67
2021/11/11 11:25:06;;;;;;;37.90;23.15;;;;;;;;;;5015531;28;20026;-68
2021/11/11 11:27:34;;;;;;;40.40;23.20;;;;;;;;;;5033645;28;20017;-67
2021/11/11 11:30:09;;;;;;;42.67;23.95;;;;;;;;;;5015711;28;20024;-67
2021/11/11 11:32:40;;;;;;;36.88;21.77;;;;;;;;;;5033804;28;20022;-68
2021/11/11 11:35:06;;;;;;;37.50;21.98;;;;;;;;;;5033130;28;20020;-68
2021/11/11 11:37:34;;;;;;;49.25;21.92;;;;;;;;;;5015872;28;20025;-68
2021/11/11 11:40:03;;;;;;;38.15;23.92;;;;;;;;;;5015726;28;20025;-68
2021/11/11 11:42:30;;;;;;;43.35;24.25;;;;;;;;;;5015729;28;20029;-68
2021/11/11 11:44:59;;;;;;;44.08;24.35;;;;;;;;;;5015426;28;20473;-66
2021/11/11 11:47:47;;;;;;;33.78;20.83;;;;;;;;;;5033006;28;20021;-68
2021/11/11 11:50:16;;;;;;;37.88;22.92;;;;;;;;;;5033319;28;20021;-68
2021/11/11 11:52:47;;;;;;;44.10;24.02;;;;;;;;;;5033272;28;20020;-68
2021/11/11 11:57:52;;;;;;;37.65;23.52;;;;;;;;;;5032724;28;20025;-68
2021/11/11 12:03:33;;;;;;;40.08;24.33;;;;;;;;;;5033041;28;20109;-69
2021/11/11 12:39:39;;;;;;;41.05;23.40;;;;;;;;;;5032139;28;20087;-67
2021/11/11 12:42:10;;;;;;;35.28;23.58;;;;;;;;;;5031979;28;20710;-68
2021/11/11 12:44:36;;;;;;;45.30;24.30;;;;;;;;;;5037211;28;20521;-67
2021/11/11 12:47:03;;;;;;;36.47;23.80;;;;;;;;;;5045027;28;20067;-67
2021/11/11 12:49:32;;;;;;;34.00;23.10;;;;;;;;;;4686136;28;10000379;-67
2021/11/11 12:52:13;;;;;;;36.53;23.00;;;;;;;;;;5029414;28;20014;-68
2021/11/11 12:54:40;;;;;;;37.47;23.45;;;;;;;;;;5029565;28;20092;-69
2021/11/11 12:57:06;;;;;;;38.30;23.83;;;;;;;;;;5029306;28;20029;-67
2021/11/11 12:59:33;;;;;;;40.47;25.02;;;;;;;;;;5029798;28;20029;-67
2021/11/11 13:02:05;;;;;;;41.47;24.13;;;;;;;;;;5034559;28;20055;-67
2021/11/11 13:04:43;;;;;;;38.83;21.67;;;;;;;;;;5037952;28;20013;-68
2021/11/11 13:07:21;;;;;;;39.88;24.50;;;;;;;;;;5043321;28;20476;-67
2021/11/11 13:09:58;;;;;;;38.92;22.60;;;;;;;;;;5020197;28;20021;-69
2021/11/11 13:12:25;;;;;;;38.30;24.13;;;;;;;;;;5035894;28;20021;-66
2021/11/11 13:14:54;;;;;;;37.83;22.73;;;;;;;;;;5041151;28;20050;-67
2021/11/11 13:17:22;;;;;;;40.70;24.92;;;;;;;;;;5049280;28;20025;-67
2021/11/11 13:19:50;;;;;;;38.80;23.20;;;;;;;;;;5048981;28;20045;-68
2021/11/11 13:22:21;;;;;;;;;;;;;;;;;;5023762;28;20104;-67
2021/11/11 13:25:00;;;;;;;38.60;23.05;;;;;;;;;;5010436;28;20378;-67
2021/11/11 14:01:22;;;;;;;39.80;23.85;;;;;;;;;;5032146;28;20041;-68
2021/11/11 15:57:33;;;;;;;51.08;27.25;;;;;;;;;;5015497;28;20413;-67
2021/11/11 16:02:45;;;;;;;45.47;25.00;;;;;;;;;;5026413;28;20477;-69
2021/11/11 16:22:29;;;;;;;46.20;26.42;;;;;;;;;;5012259;28;20083;-66
2021/11/11 16:27:04;;;;;;;45.42;27.48;;;;;;;;;;5017813;28;20025;-67
2021/11/11 16:29:31;;;;;;;44.33;25.00;;;;;;;;;;5014408;28;20547;-66
2021/11/11 16:31:58;;;;;;;42.28;24.60;;;;;;;;;;5006057;28;20029;-66
2021/11/11 16:34:25;;;;;;;46.38;26.60;;;;;;;;;;5013496;28;20026;-66
2021/11/11 16:36:52;;;;;;;46.92;25.17;;;;;;;;;;5013705;28;20036;-66
2021/11/11 16:39:19;;;;;;;43.15;25.50;;;;;;;;;;5013745;28;20110;-66
2021/11/11 16:41:45;;;;;;;41.83;23.27;;;;;;;;;;5009114;28;20143;-66
2021/11/11 16:44:12;;;;;;;43.17;23.83;;;;;;;;;;5013608;28;20030;-65
2021/11/11 16:46:39;;;;;;;41.80;25.10;;;;;;;;;;5013214;28;20033;-65
2021/11/11 16:49:07;;;;;;;45.70;24.45;;;;;;;;;;5030525;28;20026;-67
2021/11/11 16:51:33;;;;;;;43.85;24.80;;;;;;;;;;5013377;28;20013;-65
2021/11/11 16:53:59;;;;;;;43.97;24.65;;;;;;;;;;5013576;28;20064;-67
2021/11/11 16:56:27;;;;;;;42.35;25.45;;;;;;;;;;5013493;28;20029;-66
2021/11/11 16:58:53;;;;;;;44.23;23.83;;;;;;;;;;5026376;28;20026;-66
2021/11/11 17:01:20;;;;;;;47.03;24.45;;;;;;;;;;4648897;28;9999610;-66
2021/11/11 17:03:46;;;;;;;55.42;27.40;;;;;;;;;;5010949;28;20036;-66
2021/11/11 17:06:12;;;;;;;48.17;25.13;;;;;;;;;;5010235;28;20206;-65
2021/11/11 17:08:38;;;;;;;43.60;26.23;;;;;;;;;;5009809;28;20025;-65
2021/11/11 17:11:04;;;;;;;48.97;25.23;;;;;;;;;;5010419;28;20083;-69
2021/11/11 17:13:30;;;;;;;44.72;27.02;;;;;;;;;;5010517;28;20061;-66
2021/11/11 17:15:57;;;;;;;41.63;24.90;;;;;;;;;;5009573;28;20139;-67
2021/11/11 17:18:26;;;;;;;42.85;25.58;;;;;;;;;;5027542;28;20041;-66
2021/11/11 17:20:55;;;;;;;42.60;25.35;;;;;;;;;;5024461;28;20163;-66
2021/11/11 17:23:22;;;;;;;44.65;25.02;;;;;;;;;;5007992;28;20109;-66
2021/11/11 17:30:52;;;;;;;40.60;22.73;;;;;;;;;;5035253;28;20112;-67
2021/11/11 17:33:20;;;;;;;45.38;24.20;;;;;;;;;;5017038;28;20059;-67
2021/11/11 17:35:46;;;;;;;41.35;24.08;;;;;;;;;;5017118;28;20033;-65
2021/11/11 17:38:13;;;;;;;44.40;24.60;;;;;;;;;;5017183;28;20044;-66
2021/11/11 17:40:40;;;;;;;47.17;23.92;;;;;;;;;;5030410;28;20036;-65
2021/11/11 17:43:07;;;;;;;41.35;25.13;;;;;;;;;;5013119;28;20103;-66
2021/11/11 17:45:47;;;;;;;43.63;26.27;;;;;;;;;;5017176;28;20045;-65
2021/11/11 17:48:13;;;;;;;39.33;24.75;;;;;;;;;;4997744;28;20025;-66
2021/11/11 17:50:43;;;;;;;45.35;24.45;;;;;;;;;;5002775;28;20465;-66
2021/11/11 17:53:10;;;;;;;45.20;25.20;;;;;;;;;;5005979;28;20044;-66
2021/11/11 17:55:42;;;;;;;45.28;24.77;;;;;;;;;;4997362;28;20509;-66
2021/11/11 17:58:09;;;;;;;45.65;25.98;;;;;;;;;;5021017;28;20030;-66
2021/11/11 18:00:37;;;;;;;41.45;26.00;;;;;;;;;;5013825;28;20074;-64
2021/11/11 18:03:03;;;;;;;42.47;25.50;;;;;;;;;;5005980;28;20029;-64
2021/11/11 18:05:31;;;;;;;46.20;24.73;;;;;;;;;;5007282;28;20029;-64
2021/11/11 18:10:53;;;;;;;39.97;22.70;;;;;;;;;;5010683;28;20539;-64
2021/11/11 18:13:24;;;;;;;43.92;25.65;;;;;;;;;;5016490;28;20112;-65
2021/11/11 18:15:51;;;;;;;48.47;25.88;;;;;;;;;;5016801;28;20060;-67
2021/11/11 18:18:17;;;;;;;45.88;24.77;;;;;;;;;;5016782;28;20392;-65
2021/11/11 18:20:44;;;;;;;43.80;26.58;;;;;;;;;;5016145;28;20052;-65
2021/11/11 18:23:10;;;;;;;48.85;26.67;;;;;;;;;;5005283;28;20018;-65
2021/11/11 18:25:38;;;;;;;46.30;26.55;;;;;;;;;;5014038;28;20440;-67
2021/11/11 18:28:06;;;;;;;50.05;28.98;;;;;;;;;;5016839;28;20393;-65